Saturday, May 26, 2018, 2:14 AM EDT
Back to Local

KFRG, Farmingdale Republic Airport

Location: Farmingdale, NY, United States Lat: 40.733
Local Time: 2:14 AM EDT ( 6:14 GMT) Lon: -73.417
Time Zone: US/Eastern Elev: 82 ft

Show me the last for .
Show Decoded

2018-05-26 01:53 METAR KFRG 260553Z AUTO 24007KT 10SM CLR 21/17 A2984 RMK AO2 SLP103 T02060167
                 10206 20200 58007 =
2018-05-26 00:53 METAR KFRG 260453Z AUTO 23005KT 10SM CLR 21/16 A2985 RMK AO2 SLP107 T02060161
                 402610150 =
2018-05-25 23:53 METAR KFRG 260353Z AUTO 24009KT 10SM CLR 21/16 A2985 RMK AO2 SLP108 T02060161 =
2018-05-25 22:53 METAR KFRG 260253Z AUTO 22008KT 10SM CLR 20/16 A2986 RMK AO2 SLP110 T02000156
                 50002 =
2018-05-25 21:53 METAR KFRG 260153Z 23009KT 10SM CLR 20/15 A2986 RMK AO2 SLP111 T02000150 =
2018-05-25 20:53 METAR KFRG 260053Z 22010KT 10SM CLR 20/15 A2985 RMK AO2 SLP108 T02000150 =
2018-05-25 19:53 METAR KFRG 252353Z 22008KT 10SM CLR 21/15 A2985 RMK AO2 SLP108 T02060150 10261
                 20206 55007 =
2018-05-25 18:53 METAR KFRG 252253Z 21014KT 10SM CLR 22/15 A2985 RMK AO2 SLP107 T02170150 =
2018-05-25 17:53 METAR KFRG 252153Z 21012KT 10SM CLR 22/16 A2986 RMK AO2 SLP109 T02220156 =
2018-05-25 16:53 METAR KFRG 252053Z 21012KT 10SM CLR 24/16 A2987 RMK AO2 SLP116 T02390161 58020 =
2018-05-25 15:53 METAR KFRG 251953Z 22020KT 10SM CLR 25/16 A2990 RMK AO2 SLP123 T02500156 =
2018-05-25 14:53 METAR KFRG 251853Z 21013KT 10SM CLR 26/16 A2992 RMK AO2 SLP132 T02610156 $ =
2018-05-25 13:53 METAR KFRG 251753Z 21013KT 10SM CLR 26/16 A2993 RMK AO2 SLP136 T02560156 10261
                 20200 56021 $ =
2018-05-25 12:53 METAR KFRG 251653Z 21015G20KT CLR 26/15 A2995 RMK AO2 SLP142 T02560150 $ =
2018-05-25 11:53 METAR KFRG 251553Z 21009KT CLR 26/15 A2998 RMK AO2 SLP150 T02560150 $ =
2018-05-25 10:53 METAR KFRG 251453Z 24011KT 10SM CLR 26/14 A3000 RMK AO2 SLP157 T02560139 58017 =
2018-05-25 09:53 METAR KFRG 251353Z 24008KT 10SM CLR 24/14 A3002 RMK AO2 SLP163 T02440139 =
2018-05-25 08:53 METAR KFRG 251253Z 23007KT 10SM CLR 22/13 A3003 RMK AO2 SLP169 T02170133 =
2018-05-25 07:53 METAR KFRG 251153Z 24007KT 10SM CLR 20/13 A3005 RMK AO2 SLP174 T02000128 10200
                 20150 58000 =
2018-05-25 06:53 METAR KFRG 251053Z 24006KT 10SM CLR 17/12 A3005 RMK AO2 SLP177 T01720122 =
2018-05-25 05:53 METAR KFRG 250953Z AUTO 22005KT 10SM CLR 15/11 A3005 RMK AO2 SLP176 T01500106 =
2018-05-25 04:53 METAR KFRG 250853Z AUTO 24004KT 10SM CLR 16/09 A3005 RMK AO2 SLP174 T01560094
                 56012 =
2018-05-25 03:53 METAR KFRG 250753Z AUTO 24004KT 10SM CLR 16/09 A3006 RMK AO2 SLP178 T01560089 =
2018-05-25 02:53 METAR KFRG 250653Z AUTO 24005KT 10SM CLR 16/08 A3006 RMK AO2 SLP179 T01560083 =

Support USWX by starting your Amazon purchase here.